In Rescue
 
Open Full Screen Window  High Contrast Mode
Wind Gusting 00 knots
04
January 28, 2020 11:40 PM EST
Weather Information
Wind Direction
  010 °
Wind Speed
  04 kt (5 mph)
Wind Gust
  00 kt (0 mph)
Altimeter
30.14 in
Visibility
10 SM
Temperature
-05° C
23° F
Dewpoint
-07° C
19° F
Humidity
86%
1hr Rain Fall
00.00 in.
24hr Rain Fall
00.00 in.
Sky Condition
Overcast @ 1,600 ft
MVFR

METAR KMCD 290440Z AUTO 01004KT 10SM OVC016 M05/M07 A3014 RMK AO2 T10531075

FAA Disclaimer: The data displayed is for advisory purposes only and is not to be used for flight planning or operations.